Salem, IN

8:48 AM EST on January 22, 2017 (GMT -0500)
WSLM WEATHER BIRD STATION | | Change Station
Active Advisory: Flood Warning

Elev 804 ft 38.62 °N, 86.09 °W | Updated 29 seconds ago

Mostly Cloudy
Mostly Cloudy
46.2 °F
Feels Like 46 °F
N
0.0
Wind Variable Wind from NW

Today
High -- | Low -- °F
--% Chance of Precip.
Yesterday
High -- | Low -- °F
Precip. -- in
Pressure 29.54 in
Visibility 10.0 miles
Clouds Clear
Windchill 46 °F
Dew Point 45 °F
Humidity 96%
Rainfall 0.00 in
Snow Depth Not available.
7:57 AM 5:55 PM
Waning Crescent, 26% visible
METAR KLOU 221253Z 00000KT 10SM CLR 09/08 A2954 RMK AO2 SLP001 T00940078
Pressure 29.54 in
Visibility 10.0 miles
Clouds Clear
Windchill 46 °F
Dew Point 45 °F
Humidity 96%
Rainfall 0.00 in
Snow Depth Not available.
7:57 AM 5:55 PM
Waning Crescent, 26% visible
METAR KLOU 221253Z 00000KT 10SM CLR 09/08 A2954 RMK AO2 SLP001 T00940078

Get Your Daily Forecast Email!

Thanks for signing up!

Be on the lookout for a verification email in your inbox.

You'll start receiving the daily forecast at 8 AM.

×

10-Day Weather Forecast

Almanac

Astronomy

Jan. 22, 2017 Rise Set
Actual Time
Civil Twilight
Nautical Twilight
Astronomical Twilight
Moon
Length of Visible Light
Length of Day
Tomorrow will be .
, % of the Moon is Illuminated

Today's Extremes

State Highs State Lows

Community

WunderPhotos

Upload Photos

1,962,540 photos uploaded!

WunderBlog® & News

Nearby

Air Quality

  Air Quality AQ Index Pollutant
Not available.

Snow Depth

Station Depth Elevation

Earthquake Activity

City Distance Mag. Time & Date
Minimum magnitude displayed is 2.5.

Coastal Water Temperatures

Place Temperature

Stations

Nearby Weather Stations

Station Location Temp. Windchill Dew Point Humidity Wind Precip. Elev Updated Type
                   

Watches & Warnings

Flood Warning
Issued: 3:07 AM GMT Jan. 22, 2017 – National Weather Service

The Flood Warning continues for
the muscatatuck river at Wheeler Hollow.
* Until Saturday January 28.
* Flood stage is 18.0 feet.
* Forecast... the river is forecast to have a maximum value of 21.5
feet Monday evening.
* At 21.7 feet... several driveways in the Wheeler Hollow area were
flooded at this level in April 2015.


Lat... Lon 3878 8591 3878 8603 3880 8615 3876 8618
      3873 8605 3874 8591




307 am gmt sun Jan 22 2017

The Flood Warning continues for
the East Fork White River at Seymour.
* Until Wednesday morning.
* At 8:45 PM Saturday the stage was 16.2 feet.
* Flood stage is 12.0 feet.
* Minor flooding is occurring and minor flooding is forecast.
* Forecast... the river will continue to fall to below flood stage by
Tuesday before midnight.
* At 16.4 feet... State Road 258 remained open after the river
rebounded quickly to this level in June 2010. State Road 258 had
been flooded a few days earlier after river crested at 17.9 feet.


Lat... Lon 3906 8587 3893 8604 3879 8620 3877 8613
      3886 8599 3905 8583